This is the latest recevied weather packets stored in our database for station/object KK7RJD. If no packets are shown the sender has not sent any weather packets the latest 10 day(s).
| Time | Temp. | Humidity | Pressure | Rain* | Wind** | Luminosity | Snow |
|---|---|---|---|---|---|---|---|
| 1778103354 | 15° C | 23% | 1013.4 hPa | 0 mm | - | 784 W/m² | - |
| 1778103051 | 14.44° C | 21% | 1013.4 hPa | 0 mm | - | 719 W/m² | - |
| 1778102747 | 14.44° C | 22% | 1013.6 hPa | 0 mm | - | 681 W/m² | - |
| 1778102139 | 13.89° C | 21% | 1014.1 hPa | 0 mm | - | 587 W/m² | - |
| 1778101836 | 13.89° C | 21% | 1014 hPa | 0 mm | - | 529 W/m² | - |
| 1778100926 | 14.44° C | 21% | 1014.2 hPa | 0 mm | - | 705 W/m² | - |
| 1778098804 | 13.89° C | 20% | 1014.5 hPa | 0 mm | - | 862 W/m² | - |
| 1778098198 | 13.89° C | 21% | 1014.6 hPa | 0 mm | - | 905 W/m² | - |
| 1778096076 | 13.33° C | 24% | 1015.3 hPa | 0 mm | - | 926 W/m² | - |
| 1778095772 | 12.78° C | 30% | 1015.2 hPa | 0 mm | - | 930 W/m² | - |
| 1778092436 | 11.11° C | 26% | 1016.4 hPa | 0 mm | - | 970 W/m² | - |
| 1778092134 | 11.11° C | 25% | 1016.4 hPa | 0 mm | - | 939 W/m² | - |
| 1778091528 | 11.11° C | 28% | 1016.5 hPa | 0 mm | - | 887 W/m² | - |
| 1778091226 | 11.11° C | 26% | 1016.7 hPa | 0 mm | - | 911 W/m² | - |
| 1778090923 | 11.11° C | 27% | 1016.8 hPa | 0 mm | - | 904 W/m² | - |
| 1778088801 | 10° C | 30% | 1017.6 hPa | 0 mm | - | 862 W/m² | - |
| 1778088498 | 10° C | 29% | 1017.5 hPa | 0 mm | - | 854 W/m² | - |
| 1778086983 | 8.33° C | 35% | 1017.8 hPa | 0 mm | - | 807 W/m² | - |
| 1778085469 | 7.78° C | 36% | 1018.1 hPa | 0 mm | - | 752 W/m² | - |
| 1778085164 | 7.78° C | 37% | 1018.1 hPa | 0 mm | - | 739 W/m² | - |
| 1778083650 | 6.67° C | 37% | 1018.3 hPa | 0 mm | - | 662 W/m² | - |
| 1778077365 | 4.44° C | 51% | 1019.3 hPa | 0 mm | - | 311 W/m² | - |
| 1778076761 | 3.89° C | 53% | 1019.2 hPa | 0 mm | - | 281 W/m² | - |
| 1778076155 | 3.33° C | 58% | 1019.4 hPa | 0 mm | - | 48 W/m² | - |
| 1778075852 | 3.33° C | 57% | 1019.2 hPa | 0 mm | - | 50 W/m² | - |
* Rain latest hour (hover to see other rain measurements)
** Current wind speed in m/s (hover to see current wind gust speed)